Terminal Aerodrome Forecast
Issued by NWS

Home | Current Version | Previous Version | Text Only | Print | Product List | Glossary On
Versions: 1 2 3 4 5 6 7 8 9 10 11 12 13 14 15 16 17
000
FTUS45 KTFX 242336
TAFLWT
TAF
KLWT 242336Z 2500/2524 34007KT P6SM SCT040 BKN080
      TEMPO 2500/2502 BKN040
     FM250200 25006KT P6SM BKN120
     FM252000 32006KT P6SM BKN080=

USA.gov is the U.S. government's official web portal to all federal, state and local government web resources and services.